sensor_id;sensor_type;location;lat;lon;timestamp;pressure;altitude;pressure_sealevel;temperature;humidity
44992;BME280;56865;51.618;7.406;2023-05-12T00:02:05;100655.78;;;31.80;98.48
44992;BME280;56865;51.618;7.406;2023-05-12T00:04:35;100645.94;;;32.25;97.43
44992;BME280;56865;51.618;7.406;2023-05-12T00:07:08;100656.28;;;32.29;96.92
44992;BME280;56865;51.618;7.406;2023-05-12T00:09:38;100643.22;;;32.40;97.29
44992;BME280;56865;51.618;7.406;2023-05-12T00:12:09;100649.38;;;32.40;94.82
44992;BME280;56865;51.618;7.406;2023-05-12T00:14:39;100646.47;;;32.16;96.85
44992;BME280;56865;51.618;7.406;2023-05-12T00:17:08;100647.63;;;32.27;95.71
44992;BME280;56865;51.618;7.406;2023-05-12T00:19:39;100659.66;;;31.89;96.94
44992;BME280;56865;51.618;7.406;2023-05-12T00:22:12;100652.78;;;32.14;99.00
44992;BME280;56865;51.618;7.406;2023-05-12T00:24:42;100650.22;;;31.41;99.92
44992;BME280;56865;51.618;7.406;2023-05-12T00:27:12;100657.09;;;31.44;98.84
44992;BME280;56865;51.618;7.406;2023-05-12T00:29:42;100656.88;;;32.19;97.39
44992;BME280;56865;51.618;7.406;2023-05-12T00:32:11;100655.25;;;32.17;95.48
44992;BME280;56865;51.618;7.406;2023-05-12T00:34:41;100658.06;;;32.14;96.89
44992;BME280;56865;51.618;7.406;2023-05-12T00:37:14;100652.06;;;32.12;96.68
44992;BME280;56865;51.618;7.406;2023-05-12T00:39:44;100653.38;;;32.19;95.08
44992;BME280;56865;51.618;7.406;2023-05-12T00:42:13;100650.75;;;31.90;96.87
44992;BME280;56865;51.618;7.406;2023-05-12T00:44:43;100656.91;;;31.76;96.89
44992;BME280;56865;51.618;7.406;2023-05-12T00:47:13;100664.22;;;32.00;97.10
44992;BME280;56865;51.618;7.406;2023-05-12T00:49:43;100667.56;;;32.16;94.86
44992;BME280;56865;51.618;7.406;2023-05-12T00:52:15;100658.88;;;32.01;96.67
44992;BME280;56865;51.618;7.406;2023-05-12T00:54:45;100664.22;;;32.00;95.30
44992;BME280;56865;51.618;7.406;2023-05-12T00:57:15;100667.56;;;31.89;97.89
44992;BME280;56865;51.618;7.406;2023-05-12T00:59:45;100664.81;;;31.90;96.55
44992;BME280;56865;51.618;7.406;2023-05-12T01:02:14;100666.84;;;30.97;98.78
44992;BME280;56865;51.618;7.406;2023-05-12T01:04:44;100667.22;;;31.21;99.29
44992;BME280;56865;51.618;7.406;2023-05-12T01:07:17;100665.63;;;31.33;97.92
44992;BME280;56865;51.618;7.406;2023-05-12T01:09:47;100670.72;;;31.51;98.26
44992;BME280;56865;51.618;7.406;2023-05-12T01:12:21;100665.28;;;31.54;97.26
44992;BME280;56865;51.618;7.406;2023-05-12T01:14:52;100676.00;;;31.80;96.04
44992;BME280;56865;51.618;7.406;2023-05-12T01:17:23;100664.03;;;31.31;97.41
44992;BME280;56865;51.618;7.406;2023-05-12T01:19:55;100670.91;;;31.48;97.36
44992;BME280;56865;51.618;7.406;2023-05-12T01:22:30;100668.25;;;31.33;96.92
44992;BME280;56865;51.618;7.406;2023-05-12T01:25:01;100675.94;;;31.81;96.53
44992;BME280;56865;51.618;7.406;2023-05-12T01:27:34;100680.34;;;31.95;95.78
44992;BME280;56865;51.618;7.406;2023-05-12T01:30:05;100680.31;;;31.52;94.79
44992;BME280;56865;51.618;7.406;2023-05-12T01:32:37;100672.81;;;31.01;97.72
44992;BME280;56865;51.618;7.406;2023-05-12T01:35:07;100676.53;;;31.27;97.30
44992;BME280;56865;51.618;7.406;2023-05-12T01:37:37;100675.78;;;31.25;97.43
44992;BME280;56865;51.618;7.406;2023-05-12T01:40:07;100677.13;;;31.32;96.89
44992;BME280;56865;51.618;7.406;2023-05-12T01:42:40;100676.47;;;31.28;95.84
44992;BME280;56865;51.618;7.406;2023-05-12T01:45:10;100684.38;;;31.43;96.86
44992;BME280;56865;51.618;7.406;2023-05-12T01:47:40;100690.81;;;31.97;94.50
44992;BME280;56865;51.618;7.406;2023-05-12T01:50:10;100688.44;;;31.49;95.89
44992;BME280;56865;51.618;7.406;2023-05-12T01:52:39;100687.00;;;31.43;96.06
44992;BME280;56865;51.618;7.406;2023-05-12T01:55:11;100682.31;;;31.03;97.63
44992;BME280;56865;51.618;7.406;2023-05-12T01:57:44;100690.50;;;31.13;96.45
44992;BME280;56865;51.618;7.406;2023-05-12T02:00:14;100695.00;;;31.41;95.11
44992;BME280;56865;51.618;7.406;2023-05-12T02:02:44;100694.53;;;31.49;96.20
44992;BME280;56865;51.618;7.406;2023-05-12T02:13:59;100705.31;;;30.69;99.42
44992;BME280;56865;51.618;7.406;2023-05-12T02:16:29;100692.50;;;30.93;96.09
44992;BME280;56865;51.618;7.406;2023-05-12T02:29:57;100701.41;;;31.37;96.23
44992;BME280;56865;51.618;7.406;2023-05-12T02:32:27;100696.91;;;31.09;95.77
44992;BME280;56865;51.618;7.406;2023-05-12T02:34:58;100697.22;;;31.19;96.70
44992;BME280;56865;51.618;7.406;2023-05-12T02:37:27;100693.66;;;31.20;96.22
44992;BME280;56865;51.618;7.406;2023-05-12T02:39:57;100699.66;;;30.75;96.65
44992;BME280;56865;51.618;7.406;2023-05-12T02:42:27;100690.03;;;31.06;95.87
44992;BME280;56865;51.618;7.406;2023-05-12T02:45:04;100697.13;;;31.04;96.99
44992;BME280;56865;51.618;7.406;2023-05-12T02:47:38;100700.63;;;31.35;96.07
44992;BME280;56865;51.618;7.406;2023-05-12T02:50:09;100696.09;;;31.23;96.78
44992;BME280;56865;51.618;7.406;2023-05-12T02:55:43;100703.44;;;30.55;96.54
44992;BME280;56865;51.618;7.406;2023-05-12T02:58:29;100704.56;;;31.28;94.38
44992;BME280;56865;51.618;7.406;2023-05-12T03:01:02;100704.47;;;30.99;95.27
44992;BME280;56865;51.618;7.406;2023-05-12T03:03:37;100699.28;;;30.98;95.18
44992;BME280;56865;51.618;7.406;2023-05-12T03:06:07;100701.16;;;30.95;96.07
44992;BME280;56865;51.618;7.406;2023-05-12T03:08:37;100704.25;;;31.18;94.85
44992;BME280;56865;51.618;7.406;2023-05-12T03:11:09;100698.41;;;31.43;94.92
44992;BME280;56865;51.618;7.406;2023-05-12T03:13:39;100704.53;;;32.02;93.13
44992;BME280;56865;51.618;7.406;2023-05-12T03:16:12;100711.78;;;31.98;93.79
44992;BME280;56865;51.618;7.406;2023-05-12T03:18:44;100707.75;;;31.92;91.91
44992;BME280;56865;51.618;7.406;2023-05-12T03:21:14;100710.19;;;31.52;93.00
44992;BME280;56865;51.618;7.406;2023-05-12T03:23:44;100712.25;;;31.61;93.12
44992;BME280;56865;51.618;7.406;2023-05-12T03:26:15;100710.81;;;31.56;94.75
44992;BME280;56865;51.618;7.406;2023-05-12T03:29:02;100718.38;;;31.91;92.96
44992;BME280;56865;51.618;7.406;2023-05-12T03:34:20;100719.91;;;31.81;93.27
44992;BME280;56865;51.618;7.406;2023-05-12T03:36:52;100715.94;;;31.88;93.75
44992;BME280;56865;51.618;7.406;2023-05-12T03:45:16;100725.13;;;31.37;93.30
44992;BME280;56865;51.618;7.406;2023-05-12T03:56:07;100725.78;;;31.55;93.35
44992;BME280;56865;51.618;7.406;2023-05-12T03:59:03;100730.22;;;31.55;93.00
44992;BME280;56865;51.618;7.406;2023-05-12T04:01:43;100732.81;;;31.26;93.02
44992;BME280;56865;51.618;7.406;2023-05-12T04:04:13;100723.31;;;31.38;92.35
44992;BME280;56865;51.618;7.406;2023-05-12T04:12:58;100743.38;;;30.94;94.13
44992;BME280;56865;51.618;7.406;2023-05-12T04:15:29;100740.06;;;30.42;96.00
44992;BME280;56865;51.618;7.406;2023-05-12T04:17:59;100741.28;;;30.85;95.29
44992;BME280;56865;51.618;7.406;2023-05-12T04:20:29;100733.69;;;31.10;93.43
44992;BME280;56865;51.618;7.406;2023-05-12T04:23:04;100746.22;;;31.21;93.88
44992;BME280;56865;51.618;7.406;2023-05-12T04:25:44;100753.31;;;30.89;93.00
44992;BME280;56865;51.618;7.406;2023-05-12T04:28:17;100754.31;;;31.02;93.71
44992;BME280;56865;51.618;7.406;2023-05-12T04:30:52;100756.72;;;30.59;93.97
44992;BME280;56865;51.618;7.406;2023-05-12T04:33:23;100756.88;;;30.88;94.26
44992;BME280;56865;51.618;7.406;2023-05-12T04:38:51;100765.94;;;31.14;93.97
44992;BME280;56865;51.618;7.406;2023-05-12T04:41:21;100770.38;;;31.14;93.49
44992;BME280;56865;51.618;7.406;2023-05-12T05:21:01;100822.53;;;30.75;94.58
44992;BME280;56865;51.618;7.406;2023-05-12T06:38:25;100900.91;;;30.70;94.35
44992;BME280;56865;51.618;7.406;2023-05-12T06:40:55;100911.25;;;30.73;93.05
44992;BME280;56865;51.618;7.406;2023-05-12T06:43:25;100905.56;;;30.47;95.62
44992;BME280;56865;51.618;7.406;2023-05-12T06:45:54;100907.28;;;30.98;94.13
44992;BME280;56865;51.618;7.406;2023-05-12T06:48:24;100908.19;;;30.64;93.54
44992;BME280;56865;51.618;7.406;2023-05-12T06:50:54;100920.28;;;30.85;93.23
44992;BME280;56865;51.618;7.406;2023-05-12T06:53:26;100916.88;;;30.83;92.56
44992;BME280;56865;51.618;7.406;2023-05-12T06:55:56;100923.91;;;31.62;90.79
44992;BME280;56865;51.618;7.406;2023-05-12T06:58:26;100921.75;;;31.70;91.12
44992;BME280;56865;51.618;7.406;2023-05-12T07:00:56;100918.81;;;30.63;93.92
44992;BME280;56865;51.618;7.406;2023-05-12T07:03:26;100917.69;;;31.17;92.16
44992;BME280;56865;51.618;7.406;2023-05-12T07:05:55;100929.38;;;31.59;92.43
44992;BME280;56865;51.618;7.406;2023-05-12T07:08:28;100924.53;;;31.67;92.46
44992;BME280;56865;51.618;7.406;2023-05-12T07:10:58;100928.47;;;31.44;99.38
44992;BME280;56865;51.618;7.406;2023-05-12T07:51:11;100959.81;;;31.17;92.71
44992;BME280;56865;51.618;7.406;2023-05-12T07:53:50;100954.72;;;31.45;94.03
44992;BME280;56865;51.618;7.406;2023-05-12T07:56:20;100956.34;;;31.32;94.25
44992;BME280;56865;51.618;7.406;2023-05-12T07:58:52;100960.75;;;31.32;93.31
44992;BME280;56865;51.618;7.406;2023-05-12T08:01:22;100960.06;;;31.60;92.82
44992;BME280;56865;51.618;7.406;2023-05-12T08:03:52;100966.53;;;31.38;93.27
44992;BME280;56865;51.618;7.406;2023-05-12T08:06:26;100965.00;;;31.18;94.73
44992;BME280;56865;51.618;7.406;2023-05-12T08:08:55;100961.94;;;31.42;94.84
44992;BME280;56865;51.618;7.406;2023-05-12T08:11:26;100973.00;;;31.33;91.08
44992;BME280;56865;51.618;7.406;2023-05-12T08:13:56;100972.47;;;31.42;93.13
44992;BME280;56865;51.618;7.406;2023-05-12T08:16:25;100983.19;;;32.17;91.30
44992;BME280;56865;51.618;7.406;2023-05-12T08:18:55;100976.44;;;32.28;92.92
44992;BME280;56865;51.618;7.406;2023-05-12T08:21:28;100977.81;;;32.49;91.69
44992;BME280;56865;51.618;7.406;2023-05-12T08:23:58;100986.94;;;32.44;91.53
44992;BME280;56865;51.618;7.406;2023-05-12T08:26:28;100985.00;;;32.90;90.94
44992;BME280;56865;51.618;7.406;2023-05-12T08:28:58;100979.63;;;32.78;92.65
44992;BME280;56865;51.618;7.406;2023-05-12T08:31:27;100985.66;;;32.94;91.54
44992;BME280;56865;51.618;7.406;2023-05-12T08:33:57;100983.84;;;33.09;90.89
44992;BME280;56865;51.618;7.406;2023-05-12T08:36:38;100982.69;;;33.28;92.14
44992;BME280;56865;51.618;7.406;2023-05-12T08:39:08;100985.22;;;32.87;91.26
44992;BME280;56865;51.618;7.406;2023-05-12T08:41:41;100985.84;;;32.62;92.59
44992;BME280;56865;51.618;7.406;2023-05-12T08:44:11;100989.41;;;33.19;92.93
44992;BME280;56865;51.618;7.406;2023-05-12T08:46:41;100991.09;;;33.34;89.82
44992;BME280;56865;51.618;7.406;2023-05-12T08:49:13;100989.41;;;33.19;91.49
44992;BME280;56865;51.618;7.406;2023-05-12T08:51:48;101001.84;;;33.46;92.60
44992;BME280;56865;51.618;7.406;2023-05-12T08:54:23;101001.78;;;33.33;91.89
44992;BME280;56865;51.618;7.406;2023-05-12T08:56:55;100996.69;;;32.72;94.20
44992;BME280;56865;51.618;7.406;2023-05-12T08:59:29;100994.56;;;32.93;93.25
44992;BME280;56865;51.618;7.406;2023-05-12T09:02:00;101002.22;;;33.40;92.44
44992;BME280;56865;51.618;7.406;2023-05-12T09:15:08;100996.25;;;32.35;93.47
44992;BME280;56865;51.618;7.406;2023-05-12T10:39:11;101005.47;;;33.99;91.07
44992;BME280;56865;51.618;7.406;2023-05-12T11:51:46;100983.81;;;35.35;88.73
44992;BME280;56865;51.618;7.406;2023-05-12T12:02:44;100993.81;;;35.31;91.13
44992;BME280;56865;51.618;7.406;2023-05-12T12:10:55;100992.22;;;35.66;92.81
44992;BME280;56865;51.618;7.406;2023-05-12T12:13:28;100995.91;;;35.02;89.73
44992;BME280;56865;51.618;7.406;2023-05-12T12:15:58;100999.97;;;35.31;91.61
44992;BME280;56865;51.618;7.406;2023-05-12T12:18:28;101004.16;;;35.47;91.02
44992;BME280;56865;51.618;7.406;2023-05-12T12:20:58;100987.53;;;35.93;92.10
44992;BME280;56865;51.618;7.406;2023-05-12T12:50:27;100987.16;;;35.25;91.57
44992;BME280;56865;51.618;7.406;2023-05-12T13:46:48;100977.13;;;34.27;94.90
44992;BME280;56865;51.618;7.406;2023-05-12T13:49:20;100972.09;;;33.84;97.81
44992;BME280;56865;51.618;7.406;2023-05-12T14:26:58;100956.78;;;36.60;96.03
44992;BME280;56865;51.618;7.406;2023-05-12T14:42:53;100954.13;;;36.60;91.47
44992;BME280;56865;51.618;7.406;2023-05-12T14:45:28;100950.25;;;36.65;92.23
44992;BME280;56865;51.618;7.406;2023-05-12T14:48:06;100949.53;;;36.40;94.14
44992;BME280;56865;51.618;7.406;2023-05-12T14:50:38;100954.47;;;36.67;93.16
44992;BME280;56865;51.618;7.406;2023-05-12T14:53:11;100971.19;;;36.22;90.14
44992;BME280;56865;51.618;7.406;2023-05-12T14:55:41;100986.94;;;35.28;86.11
44992;BME280;56865;51.618;7.406;2023-05-12T14:58:14;100987.34;;;34.72;87.92
44992;BME280;56865;51.618;7.406;2023-05-12T15:00:51;100996.34;;;34.70;87.60
44992;BME280;56865;51.618;7.406;2023-05-12T15:03:21;100995.97;;;35.13;90.38
44992;BME280;56865;51.618;7.406;2023-05-12T15:05:51;101001.53;;;34.97;85.11
44992;BME280;56865;51.618;7.406;2023-05-12T15:08:31;101004.28;;;34.70;88.41
44992;BME280;56865;51.618;7.406;2023-05-12T15:11:01;100995.91;;;34.76;90.67
44992;BME280;56865;51.618;7.406;2023-05-12T15:13:34;100996.34;;;34.70;89.96
44992;BME280;56865;51.618;7.406;2023-05-12T15:16:03;100992.59;;;34.21;87.02
44992;BME280;56865;51.618;7.406;2023-05-12T15:18:33;101003.66;;;34.53;90.88
44992;BME280;56865;51.618;7.406;2023-05-12T15:21:03;100994.53;;;34.57;91.15
44992;BME280;56865;51.618;7.406;2023-05-12T15:23:33;100994.38;;;34.20;89.67
44992;BME280;56865;51.618;7.406;2023-05-12T15:26:06;100993.50;;;34.34;90.18
44992;BME280;56865;51.618;7.406;2023-05-12T15:28:55;100996.91;;;34.09;87.97
44992;BME280;56865;51.618;7.406;2023-05-12T15:31:26;101003.09;;;33.95;90.54
44992;BME280;56865;51.618;7.406;2023-05-12T15:33:57;100998.16;;;33.76;88.93
44992;BME280;56865;51.618;7.406;2023-05-12T15:36:26;100995.88;;;33.57;86.65
44992;BME280;56865;51.618;7.406;2023-05-12T15:38:58;100998.47;;;33.44;87.19
44992;BME280;56865;51.618;7.406;2023-05-12T15:41:28;100994.44;;;33.65;89.95
44992;BME280;56865;51.618;7.406;2023-05-12T15:44:02;100989.44;;;33.61;89.29
44992;BME280;56865;51.618;7.406;2023-05-12T15:46:33;100992.56;;;33.53;88.93
44992;BME280;56865;51.618;7.406;2023-05-12T15:49:13;100997.13;;;33.22;87.32
44992;BME280;56865;51.618;7.406;2023-05-12T15:51:44;100992.47;;;33.54;86.68
44992;BME280;56865;51.618;7.406;2023-05-12T15:54:15;101000.00;;;33.33;86.15
44992;BME280;56865;51.618;7.406;2023-05-12T15:56:46;100999.09;;;33.75;86.21
44992;BME280;56865;51.618;7.406;2023-05-12T15:59:19;100994.69;;;33.75;87.36
44992;BME280;56865;51.618;7.406;2023-05-12T16:01:49;101004.56;;;33.86;85.93
44992;BME280;56865;51.618;7.406;2023-05-12T16:04:19;101002.94;;;34.11;88.02
44992;BME280;56865;51.618;7.406;2023-05-12T16:06:49;101001.94;;;33.44;88.26
44992;BME280;56865;51.618;7.406;2023-05-12T16:09:19;100996.59;;;33.31;87.50
44992;BME280;56865;51.618;7.406;2023-05-12T16:11:49;100996.72;;;33.30;90.34
44992;BME280;56865;51.618;7.406;2023-05-12T16:14:22;100996.72;;;33.30;87.83
44992;BME280;56865;51.618;7.406;2023-05-12T16:16:52;100997.97;;;33.79;88.77
44992;BME280;56865;51.618;7.406;2023-05-12T16:19:26;101000.47;;;33.67;87.02
44992;BME280;56865;51.618;7.406;2023-05-12T16:22:06;101002.69;;;33.88;87.95
44992;BME280;56865;51.618;7.406;2023-05-12T16:24:48;100993.56;;;33.92;88.09
44992;BME280;56865;51.618;7.406;2023-05-12T16:27:39;100997.44;;;33.74;87.29
44992;BME280;56865;51.618;7.406;2023-05-12T16:30:13;100998.47;;;33.98;88.55
44992;BME280;56865;51.618;7.406;2023-05-12T16:32:57;101000.94;;;34.14;88.68
44992;BME280;56865;51.618;7.406;2023-05-12T16:35:31;100999.13;;;34.15;86.97
44992;BME280;56865;51.618;7.406;2023-05-12T16:38:05;101003.19;;;34.21;88.71
44992;BME280;56865;51.618;7.406;2023-05-12T16:40:35;100996.81;;;34.23;88.70
44992;BME280;56865;51.618;7.406;2023-05-12T16:43:05;100996.16;;;34.07;88.21
44992;BME280;56865;51.618;7.406;2023-05-12T16:45:39;101001.59;;;34.18;88.45
44992;BME280;56865;51.618;7.406;2023-05-12T16:48:10;100993.97;;;34.26;88.71
44992;BME280;56865;51.618;7.406;2023-05-12T16:51:08;100997.91;;;34.33;89.12
44992;BME280;56865;51.618;7.406;2023-05-12T16:53:41;100994.22;;;34.36;88.59
44992;BME280;56865;51.618;7.406;2023-05-12T16:56:13;101003.03;;;34.37;87.54
44992;BME280;56865;51.618;7.406;2023-05-12T16:58:44;100997.38;;;33.88;89.28
44992;BME280;56865;51.618;7.406;2023-05-12T17:01:20;100995.50;;;32.92;92.03
44992;BME280;56865;51.618;7.406;2023-05-12T17:04:06;100999.84;;;32.93;92.64
44992;BME280;56865;51.618;7.406;2023-05-12T17:06:38;101002.38;;;32.95;94.38
44992;BME280;56865;51.618;7.406;2023-05-12T17:09:09;101000.66;;;33.22;92.67
44992;BME280;56865;51.618;7.406;2023-05-12T17:11:41;101000.41;;;32.98;93.89
44992;BME280;56865;51.618;7.406;2023-05-12T17:14:12;101007.19;;;33.02;94.57
44992;BME280;56865;51.618;7.406;2023-05-12T17:16:47;101013.59;;;32.98;94.16
44992;BME280;56865;51.618;7.406;2023-05-12T17:19:19;101021.81;;;32.94;92.25
44992;BME280;56865;51.618;7.406;2023-05-12T17:21:51;101018.03;;;32.83;94.73
44992;BME280;56865;51.618;7.406;2023-05-12T17:24:28;101022.13;;;33.87;91.14
44992;BME280;56865;51.618;7.406;2023-05-12T17:27:04;101019.25;;;32.92;94.02
44992;BME280;56865;51.618;7.406;2023-05-12T17:29:49;101020.56;;;33.14;94.48
44992;BME280;56865;51.618;7.406;2023-05-12T17:32:24;101017.16;;;33.12;94.24
44992;BME280;56865;51.618;7.406;2023-05-12T17:35:05;101020.34;;;33.17;94.18
44992;BME280;56865;51.618;7.406;2023-05-12T17:37:54;101025.94;;;34.23;91.15
44992;BME280;56865;51.618;7.406;2023-05-12T17:40:24;101026.22;;;33.36;92.60
44992;BME280;56865;51.618;7.406;2023-05-12T17:42:56;101025.38;;;33.21;92.86
44992;BME280;56865;51.618;7.406;2023-05-12T17:45:38;101017.00;;;33.15;93.24
44992;BME280;56865;51.618;7.406;2023-05-12T17:48:13;101028.13;;;33.20;94.14
44992;BME280;56865;51.618;7.406;2023-05-12T17:51:02;101027.72;;;33.12;91.71
44992;BME280;56865;51.618;7.406;2023-05-12T17:53:46;101028.28;;;33.17;93.92
44992;BME280;56865;51.618;7.406;2023-05-12T17:56:17;101024.91;;;33.15;93.46
44992;BME280;56865;51.618;7.406;2023-05-12T17:58:47;101028.28;;;32.88;93.04
44992;BME280;56865;51.618;7.406;2023-05-12T18:01:19;101025.84;;;33.14;93.31
44992;BME280;56865;51.618;7.406;2023-05-12T18:03:54;101034.16;;;33.08;92.67
44992;BME280;56865;51.618;7.406;2023-05-12T18:06:32;101030.47;;;33.10;91.68
44992;BME280;56865;51.618;7.406;2023-05-12T18:09:03;101034.72;;;33.13;94.37
44992;BME280;56865;51.618;7.406;2023-05-12T18:11:44;101034.81;;;33.11;93.92
44992;BME280;56865;51.618;7.406;2023-05-12T18:14:53;101034.63;;;33.14;93.44
44992;BME280;56865;51.618;7.406;2023-05-12T18:17:38;101037.34;;;33.13;93.15
44992;BME280;56865;51.618;7.406;2023-05-12T18:23:22;101044.34;;;33.14;93.16
44992;BME280;56865;51.618;7.406;2023-05-12T18:25:59;101046.44;;;33.09;93.59
44992;BME280;56865;51.618;7.406;2023-05-12T18:28:35;101040.75;;;33.00;92.47
44992;BME280;56865;51.618;7.406;2023-05-12T18:31:08;101048.41;;;33.05;94.15
44992;BME280;56865;51.618;7.406;2023-05-12T18:33:41;101046.03;;;33.00;94.23
44992;BME280;56865;51.618;7.406;2023-05-12T18:36:14;101048.13;;;33.10;94.40
44992;BME280;56865;51.618;7.406;2023-05-12T18:38:46;101047.75;;;33.16;94.28
44992;BME280;56865;51.618;7.406;2023-05-12T18:41:16;101047.25;;;33.09;94.05
44992;BME280;56865;51.618;7.406;2023-05-12T18:43:45;101050.38;;;33.01;92.92
44992;BME280;56865;51.618;7.406;2023-05-12T18:46:15;101062.44;;;33.05;90.83
44992;BME280;56865;51.618;7.406;2023-05-12T18:48:45;101058.13;;;33.04;93.04
44992;BME280;56865;51.618;7.406;2023-05-12T18:51:14;101057.94;;;32.93;91.17
44992;BME280;56865;51.618;7.406;2023-05-12T18:53:47;101057.53;;;32.85;91.64
44992;BME280;56865;51.618;7.406;2023-05-12T18:56:17;101065.38;;;32.86;91.77
44992;BME280;56865;51.618;7.406;2023-05-12T18:58:46;101064.69;;;32.83;89.69
44992;BME280;56865;51.618;7.406;2023-05-12T19:01:16;101068.31;;;32.96;91.07
44992;BME280;56865;51.618;7.406;2023-05-12T19:03:46;101076.63;;;33.04;90.47
44992;BME280;56865;51.618;7.406;2023-05-12T19:06:15;101073.19;;;32.88;91.72
44992;BME280;56865;51.618;7.406;2023-05-12T19:08:48;101078.28;;;32.77;89.31
44992;BME280;56865;51.618;7.406;2023-05-12T19:11:17;101085.66;;;32.86;91.15
44992;BME280;56865;51.618;7.406;2023-05-12T19:13:47;101081.78;;;32.77;92.47
44992;BME280;56865;51.618;7.406;2023-05-12T19:16:17;101083.97;;;32.08;91.51
44992;BME280;56865;51.618;7.406;2023-05-12T19:18:49;101087.59;;;31.57;90.73
44992;BME280;56865;51.618;7.406;2023-05-12T19:21:19;101085.41;;;31.50;93.63
44992;BME280;56865;51.618;7.406;2023-05-12T19:23:51;101091.13;;;31.40;91.68
44992;BME280;56865;51.618;7.406;2023-05-12T19:26:21;101098.13;;;31.41;93.73
44992;BME280;56865;51.618;7.406;2023-05-12T19:28:52;101100.97;;;31.21;94.56
44992;BME280;56865;51.618;7.406;2023-05-12T19:31:22;101097.84;;;31.30;94.45
44992;BME280;56865;51.618;7.406;2023-05-12T19:33:51;101101.44;;;31.11;91.43
44992;BME280;56865;51.618;7.406;2023-05-12T19:36:24;101102.91;;;31.00;90.35
44992;BME280;56865;51.618;7.406;2023-05-12T19:41:59;101112.44;;;30.85;90.87
44992;BME280;56865;51.618;7.406;2023-05-12T19:44:28;101115.78;;;30.88;90.66
44992;BME280;56865;51.618;7.406;2023-05-12T19:46:58;101109.13;;;30.81;89.20
44992;BME280;56865;51.618;7.406;2023-05-12T19:49:30;101107.28;;;30.66;90.03
44992;BME280;56865;51.618;7.406;2023-05-12T19:52:00;101115.53;;;30.58;88.70
44992;BME280;56865;51.618;7.406;2023-05-12T19:54:30;101114.59;;;30.59;89.30
44992;BME280;56865;51.618;7.406;2023-05-12T21:59:28;101171.75;;;28.98;87.75
44992;BME280;56865;51.618;7.406;2023-05-12T22:39:42;101189.41;;;28.94;87.03
44992;BME280;56865;51.618;7.406;2023-05-12T22:42:12;101184.44;;;28.88;86.27
44992;BME280;56865;51.618;7.406;2023-05-12T22:44:42;101189.69;;;28.88;87.35
44992;BME280;56865;51.618;7.406;2023-05-12T22:47:11;101191.69;;;28.81;86.85
44992;BME280;56865;51.618;7.406;2023-05-12T22:49:41;101194.53;;;28.77;86.04
44992;BME280;56865;51.618;7.406;2023-05-12T22:52:11;101196.75;;;28.64;86.25
44992;BME280;56865;51.618;7.406;2023-05-12T22:54:43;101194.06;;;28.65;85.24
44992;BME280;56865;51.618;7.406;2023-05-12T22:57:13;101197.59;;;28.64;86.64
44992;BME280;56865;51.618;7.406;2023-05-12T22:59:42;101197.50;;;28.90;87.84
44992;BME280;56865;51.618;7.406;2023-05-12T23:02:12;101185.81;;;28.52;85.30
44992;BME280;56865;51.618;7.406;2023-05-12T23:04:42;101192.13;;;28.48;85.90
44992;BME280;56865;51.618;7.406;2023-05-12T23:07:12;101202.34;;;28.32;84.94
44992;BME280;56865;51.618;7.406;2023-05-12T23:09:44;101192.03;;;28.50;85.17
44992;BME280;56865;51.618;7.406;2023-05-12T23:12:14;101191.63;;;28.38;86.00
44992;BME280;56865;51.618;7.406;2023-05-12T23:14:44;101195.22;;;28.36;86.50
44992;BME280;56865;51.618;7.406;2023-05-12T23:17:14;101195.69;;;28.24;85.15
44992;BME280;56865;51.618;7.406;2023-05-12T23:19:44;101196.50;;;28.26;84.98
44992;BME280;56865;51.618;7.406;2023-05-12T23:22:13;101199.84;;;28.51;86.58
44992;BME280;56865;51.618;7.406;2023-05-12T23:24:46;101190.53;;;28.44;86.85
44992;BME280;56865;51.618;7.406;2023-05-12T23:27:16;101190.41;;;28.25;86.58
44992;BME280;56865;51.618;7.406;2023-05-12T23:29:45;101192.44;;;28.17;86.21
44992;BME280;56865;51.618;7.406;2023-05-12T23:32:15;101190.00;;;28.12;85.84
44992;BME280;56865;51.618;7.406;2023-05-12T23:34:45;101196.69;;;28.43;86.75
44992;BME280;56865;51.618;7.406;2023-05-12T23:37:15;101189.72;;;28.42;86.21
44992;BME280;56865;51.618;7.406;2023-05-12T23:39:47;101193.56;;;28.33;87.30
44992;BME280;56865;51.618;7.406;2023-05-12T23:42:17;101187.34;;;28.36;86.29
44992;BME280;56865;51.618;7.406;2023-05-12T23:44:47;101191.59;;;28.16;85.39
44992;BME280;56865;51.618;7.406;2023-05-12T23:47:17;101186.56;;;28.56;86.21
44992;BME280;56865;51.618;7.406;2023-05-12T23:49:47;101191.53;;;28.40;84.25
44992;BME280;56865;51.618;7.406;2023-05-12T23:52:16;101188.22;;;28.36;85.03
44992;BME280;56865;51.618;7.406;2023-05-12T23:54:49;101178.50;;;28.38;85.93
44992;BME280;56865;51.618;7.406;2023-05-12T23:57:18;101187.91;;;28.44;86.19
44992;BME280;56865;51.618;7.406;2023-05-12T23:59:48;101187.84;;;28.46;85.36
